Time,TemperatureF,DewpointF,PressureIn,WindDirection,WindDirectionDegrees,WindSpeedMPH,WindSpeedGustMPH,Humidity,HourlyPrecipIn,Conditions,Clouds,dailyrainin,SoftwareType,DateUTC
2013-01-22 00:22:00,55.0,32.0,30.05,WSW,250,3.0,-999.0,42,0.00,,,-99.99,,2013-01-22 08:22:00,
2013-01-22 00:32:00,55.0,32.0,30.05,WSW,250,3.0,-999.0,42,0.00,,,-99.99,,2013-01-22 08:32:00,
2013-01-22 00:42:00,55.0,32.0,30.05,WSW,250,3.0,-999.0,42,0.00,,,-99.99,,2013-01-22 08:42:00,
2013-01-22 01:22:00,54.0,34.0,30.03,WSW,250,3.0,-999.0,46,0.00,,,-99.99,,2013-01-22 09:22:00,
2013-01-22 01:32:00,54.0,34.0,30.03,WSW,250,3.0,-999.0,46,0.00,,,-99.99,,2013-01-22 09:32:00,
2013-01-22 01:42:00,54.0,34.0,30.03,WSW,250,3.0,-999.0,46,0.00,,,-99.99,,2013-01-22 09:42:00,
2013-01-22 02:22:00,53.0,32.0,30.03,West,260,2.0,-999.0,45,0.00,,,-99.99,,2013-01-22 10:22:00,
2013-01-22 02:32:00,53.0,32.0,30.03,West,260,2.0,-999.0,45,0.00,,,-99.99,,2013-01-22 10:32:00,
2013-01-22 03:22:00,55.0,28.0,30.03,North,0,0.0,-999.0,35,0.00,,,-99.99,,2013-01-22 11:22:00,
2013-01-22 03:33:00,55.0,28.0,30.03,North,0,0.0,-999.0,35,0.00,,,-99.99,,2013-01-22 11:33:00,
2013-01-22 03:42:00,55.0,28.0,30.03,North,0,0.0,-999.0,35,0.00,,,-99.99,,2013-01-22 11:42:00,
2013-01-22 04:23:00,51.0,33.0,30.04,WNW,290,4.0,-999.0,49,0.00,,,-99.99,,2013-01-22 12:23:00,
2013-01-22 04:33:00,51.0,33.0,30.04,WNW,290,4.0,-999.0,49,0.00,,,-99.99,,2013-01-22 12:33:00,
2013-01-22 04:43:00,51.0,33.0,30.04,WNW,290,4.0,-999.0,49,0.00,,,-99.99,,2013-01-22 12:43:00,
2013-01-22 05:23:00,52.0,27.0,30.03,North,0,0.0,-999.0,38,0.00,,,-99.99,,2013-01-22 13:23:00,
2013-01-22 05:33:00,52.0,27.0,30.03,North,0,0.0,-999.0,38,0.00,,,-99.99,,2013-01-22 13:33:00,
2013-01-22 05:43:00,52.0,27.0,30.03,North,0,0.0,-999.0,38,0.00,,,-99.99,,2013-01-22 13:43:00,
2013-01-22 06:23:00,57.0,24.0,30.04,North,0,0.0,-999.0,28,0.00,,,-99.99,,2013-01-22 14:23:00,
2013-01-22 06:33:00,57.0,24.0,30.04,North,0,0.0,-999.0,28,0.00,,,-99.99,,2013-01-22 14:33:00,
2013-01-22 06:43:00,57.0,24.0,30.04,North,0,0.0,-999.0,28,0.00,,,-99.99,,2013-01-22 14:43:00,
2013-01-22 07:23:00,51.0,33.0,30.05,North,0,0.0,-999.0,49,0.00,,,-99.99,,2013-01-22 15:23:00,
2013-01-22 07:33:00,51.0,33.0,30.05,North,0,0.0,-999.0,49,0.00,,,-99.99,,2013-01-22 15:33:00,
2013-01-22 07:43:00,51.0,33.0,30.05,North,0,0.0,-999.0,49,0.00,,,-99.99,,2013-01-22 15:43:00,
2013-01-22 08:23:00,54.0,24.0,30.05,North,0,0.0,-999.0,31,0.00,,,-99.99,,2013-01-22 16:23:00,
2013-01-22 08:33:00,54.0,24.0,30.05,North,0,0.0,-999.0,31,0.00,,,-99.99,,2013-01-22 16:33:00,
2013-01-22 08:43:00,54.0,24.0,30.05,North,0,0.0,-999.0,31,0.00,,,-99.99,,2013-01-22 16:43:00,
2013-01-22 09:23:00,58.0,41.0,30.06,West,260,3.0,-999.0,54,0.00,,,-99.99,,2013-01-22 17:23:00,
2013-01-22 09:33:00,58.0,41.0,30.06,West,260,3.0,-999.0,54,0.00,,,-99.99,,2013-01-22 17:33:00,
2013-01-22 10:23:00,63.0,42.0,30.07,WSW,250,2.0,-999.0,46,0.00,,,-99.99,,2013-01-22 18:23:00,
2013-01-22 10:33:00,63.0,42.0,30.07,WSW,250,2.0,-999.0,46,0.00,,,-99.99,,2013-01-22 18:33:00,
2013-01-22 11:23:00,67.0,43.0,30.07,North,0,0.0,-999.0,41,0.00,,,-99.99,,2013-01-22 19:23:00,
2013-01-22 11:33:00,67.0,43.0,30.07,North,0,0.0,-999.0,41,0.00,,,-99.99,,2013-01-22 19:33:00,
2013-01-22 12:23:00,69.0,33.0,30.02,NNW,330,7.0,-999.0,26,0.00,,,-99.99,,2013-01-22 20:23:00,
2013-01-22 12:33:00,69.0,33.0,30.02,NNW,330,7.0,-999.0,26,0.00,,,-99.99,,2013-01-22 20:33:00,
2013-01-22 12:42:00,69.0,33.0,30.02,NNW,330,7.0,-999.0,26,0.00,,,-99.99,,2013-01-22 20:42:00,
2013-01-22 13:22:00,68.0,36.0,30.00,WNW,290,14.0,-999.0,31,0.00,,,-99.99,,2013-01-22 21:22:00,
2013-01-22 13:33:00,68.0,36.0,30.00,WNW,290,14.0,-999.0,31,0.00,,,-99.99,,2013-01-22 21:33:00,
2013-01-22 13:43:00,68.0,36.0,30.00,WNW,290,14.0,-999.0,31,0.00,,,-99.99,,2013-01-22 21:43:00,
2013-01-22 14:22:00,65.0,35.0,30.00,North,350,9.0,-999.0,33,0.00,,,-99.99,,2013-01-22 22:22:00,
2013-01-22 14:32:00,65.0,35.0,30.00,North,350,9.0,-999.0,33,0.00,,,-99.99,,2013-01-22 22:32:00,
2013-01-22 14:43:00,65.0,35.0,30.00,North,350,9.0,-999.0,33,0.00,,,-99.99,,2013-01-22 22:43:00,
2013-01-22 15:23:00,67.0,33.0,30.00,NW,310,9.0,-999.0,28,0.00,,,-99.99,,2013-01-22 23:23:00,
2013-01-22 15:33:00,67.0,33.0,30.00,NW,310,9.0,-999.0,28,0.00,,,-99.99,,2013-01-22 23:33:00,
2013-01-22 15:42:00,67.0,33.0,30.00,NW,310,9.0,-999.0,28,0.00,,,-99.99,,2013-01-22 23:42:00,
2013-01-22 16:22:00,73.0,21.0,29.99,West,280,10.0,-999.0,14,0.00,,,-99.99,,2013-01-23 00:22:00,
2013-01-22 16:33:00,73.0,21.0,29.99,West,280,10.0,-999.0,14,0.00,,,-99.99,,2013-01-23 00:33:00,
2013-01-22 16:42:00,73.0,21.0,29.99,West,280,10.0,-999.0,14,0.00,,,-99.99,,2013-01-23 00:42:00,
2013-01-22 17:22:00,65.0,42.0,30.01,North,0,0.0,-999.0,43,0.00,,,-99.99,,2013-01-23 01:22:00,
2013-01-22 17:33:00,65.0,42.0,30.01,North,0,0.0,-999.0,43,0.00,,,-99.99,,2013-01-23 01:33:00,
2013-01-22 18:23:00,63.0,44.0,30.02,NNW,340,4.0,-999.0,50,0.00,,,-99.99,,2013-01-23 02:23:00,
2013-01-22 18:33:00,63.0,44.0,30.02,NNW,340,4.0,-999.0,50,0.00,,,-99.99,,2013-01-23 02:33:00,
2013-01-22 19:23:00,61.0,37.0,30.04,NW,320,4.0,-999.0,41,0.00,,,-99.99,,2013-01-23 03:23:00,
2013-01-22 19:32:00,61.0,37.0,30.04,NW,320,4.0,-999.0,41,0.00,,,-99.99,,2013-01-23 03:32:00,
2013-01-22 20:22:00,61.0,41.0,30.03,North,0,0.0,-999.0,47,0.00,,,-99.99,,2013-01-23 04:22:00,
2013-01-22 20:32:00,61.0,41.0,30.03,North,0,0.0,-999.0,47,0.00,,,-99.99,,2013-01-23 04:32:00,
2013-01-22 21:22:00,59.0,37.0,30.04,North,0,0.0,-999.0,44,0.00,,,-99.99,,2013-01-23 05:22:00,
2013-01-22 21:33:00,59.0,37.0,30.04,North,0,0.0,-999.0,44,0.00,,,-99.99,,2013-01-23 05:33:00,
2013-01-22 22:22:00,57.0,34.0,30.04,West,270,2.0,-999.0,42,0.00,,,-99.99,,2013-01-23 06:22:00,
2013-01-22 22:32:00,57.0,34.0,30.04,West,270,2.0,-999.0,42,0.00,,,-99.99,,2013-01-23 06:32:00,
2013-01-22 23:22:00,62.0,31.0,30.04,NNW,340,5.0,-999.0,31,0.00,,,-99.99,,2013-01-23 07:22:00,
2013-01-22 23:33:00,62.0,31.0,30.04,NNW,340,5.0,-999.0,31,0.00,,,-99.99,,2013-01-23 07:33:00,
2013-01-22 23:42:00,62.0,31.0,30.04,NNW,340,5.0,-999.0,31,0.00,,,-99.99,,2013-01-23 07:42:00,